Time;durP1;ratioP1;P1;durP2;ratioP2;P2;SDS_P1;SDS_P2;PMS_P1;PMS_P2;Temp;Humidity;BMP_temperature;BMP_pressure;BME280_temperature;BME280_humidity;BME280_pressure;Samples;Min_cycle;Max_cycle;Signal;HPM_P1;HPM_P2
2022/07/14 00:00:31;;;;;;;;;;;17.30;99.90;;;;;;5070738;28;19909;-65
2022/07/14 00:02:57;;;;;;;;;;;17.30;99.90;;;;;;5070467;28;19909;-65
2022/07/14 00:05:22;;;;;;;;;;;17.20;99.90;;;;;;5069151;28;19915;-65
2022/07/14 00:07:48;;;;;;;;;;;17.10;99.90;;;;;;5070324;28;20284;-64
2022/07/14 00:10:14;;;;;;;;;;;17.20;99.90;;;;;;5070545;28;19916;-65
2022/07/14 00:12:40;;;;;;;;;;;;;;;;;;5070167;28;19912;-65
2022/07/14 00:15:06;;;;;;;;;;;17.10;99.90;;;;;;5070447;28;20007;-65
2022/07/14 00:17:31;;;;;;;;;;;17.10;99.90;;;;;;5070174;28;20333;-64
2022/07/14 00:19:56;;;;;;;;;;;17.00;99.90;;;;;;5070341;28;19931;-65
2022/07/14 00:22:22;;;;;;;;;;;16.90;99.90;;;;;;5070296;28;19944;-64
2022/07/14 00:24:48;;;;;;;;;;;16.90;99.90;;;;;;5070237;28;20371;-65
2022/07/14 00:27:14;;;;;;;;;;;16.90;99.90;;;;;;5070208;28;19915;-65
2022/07/14 00:29:39;;;;;;;;;;;16.90;99.90;;;;;;5069867;28;19938;-65
2022/07/14 00:32:06;;;;;;;;;;;16.80;99.90;;;;;;5075669;28;19963;-64
2022/07/14 00:34:32;;;;;;;;;;;16.80;99.90;;;;;;5090335;28;20007;-65
2022/07/14 00:36:58;;;;;;;;;;;16.80;99.90;;;;;;5090010;28;20339;-65
2022/07/14 00:39:24;;;;;;;;;;;16.80;99.90;;;;;;5071951;28;19908;-64
2022/07/14 00:41:49;;;;;;;;;;;16.80;99.90;;;;;;5090161;28;20397;-65
2022/07/14 00:44:15;;;;;;;;;;;16.70;99.90;;;;;;5081788;28;20426;-65
2022/07/14 00:46:40;;;;;;;;;;;16.80;99.90;;;;;;5076569;28;19915;-64
2022/07/14 00:49:06;;;;;;;;;;;16.80;99.90;;;;;;5076272;28;19915;-65
2022/07/14 00:51:31;;;;;;;;;;;16.90;99.90;;;;;;5076429;28;19908;-64
2022/07/14 00:53:57;;;;;;;;;;;16.80;99.90;;;;;;5076479;28;19909;-65
2022/07/14 00:56:22;;;;;;;;;;;16.80;99.90;;;;;;5076191;28;19954;-64
2022/07/14 00:58:48;;;;;;;;;;;16.80;99.90;;;;;;5076020;28;19978;-65
2022/07/14 01:01:14;;;;;;;;;;;16.70;99.90;;;;;;5076322;28;19916;-65
2022/07/14 01:03:39;;;;;;;;;;;16.70;99.90;;;;;;5076273;28;20343;-65
2022/07/14 01:06:05;;;;;;;;;;;16.70;99.90;;;;;;5076226;28;19935;-65
2022/07/14 01:08:31;;;;;;;;;;;16.70;99.90;;;;;;5075928;28;19909;-65
2022/07/14 01:10:56;;;;;;;;;;;16.70;99.90;;;;;;5076159;28;19908;-65
2022/07/14 01:13:22;;;;;;;;;;;16.70;99.90;;;;;;5075847;28;20419;-64
2022/07/14 01:15:47;;;;;;;;;;;16.70;99.90;;;;;;5076089;28;19967;-65
2022/07/14 01:18:13;;;;;;;;;;;16.70;99.90;;;;;;5075752;28;19948;-65
2022/07/14 01:20:39;;;;;;;;;;;16.70;99.90;;;;;;5075945;28;19916;-65
2022/07/14 01:23:04;;;;;;;;;;;16.80;99.90;;;;;;5075894;28;19909;-65
2022/07/14 01:25:31;;;;;;;;;;;16.70;99.90;;;;;;5075911;28;19919;-65
2022/07/14 01:27:56;;;;;;;;;;;16.70;99.90;;;;;;5075849;28;19915;-65
2022/07/14 01:30:22;;;;;;;;;;;16.70;99.90;;;;;;5075539;28;19947;-65
2022/07/14 01:32:47;;;;;;;;;;;16.70;99.90;;;;;;5075355;28;19928;-65
2022/07/14 01:35:12;;;;;;;;;;;16.80;99.90;;;;;;5075564;28;19995;-65
2022/07/14 01:37:38;;;;;;;;;;;16.60;99.90;;;;;;5075643;28;20362;-65
2022/07/14 01:40:04;;;;;;;;;;;16.60;99.90;;;;;;5075573;28;19954;-65
2022/07/14 01:42:30;;;;;;;;;;;16.50;99.90;;;;;;5075278;28;19958;-65
2022/07/14 01:44:55;;;;;;;;;;;16.50;99.90;;;;;;5075521;28;19916;-65
2022/07/14 01:47:21;;;;;;;;;;;16.40;99.90;;;;;;5075162;28;20393;-64
2022/07/14 01:49:47;;;;;;;;;;;16.30;99.90;;;;;;5075436;28;19954;-65
2022/07/14 01:52:12;;;;;;;;;;;16.30;99.90;;;;;;5075034;28;20431;-65
2022/07/14 01:54:38;;;;;;;;;;;16.20;99.90;;;;;;5074850;28;19908;-65
2022/07/14 01:57:06;;;;;;;;;;;16.20;99.90;;;;;;5056425;28;19908;-65
2022/07/14 01:59:31;;;;;;;;;;;16.20;99.90;;;;;;5075167;28;19987;-65
2022/07/14 02:01:57;;;;;;;;;;;16.20;99.90;;;;;;5074937;28;19912;-65
2022/07/14 02:04:22;;;;;;;;;;;16.20;99.90;;;;;;5075135;28;19996;-65
2022/07/14 02:06:49;;;;;;;;;;;16.20;99.90;;;;;;5075057;28;19908;-65
2022/07/14 02:09:15;;;;;;;;;;;16.20;99.90;;;;;;5074994;28;19909;-65
2022/07/14 02:12:12;;;;;;;;;;;16.20;99.90;;;;;;5074602;28;20397;-65
2022/07/14 02:14:27;;;;;;;;;;;16.10;99.90;;;;;;5074512;28;19954;-65
2022/07/14 02:16:54;;;;;;;;;;;16.20;99.90;;;;;;5074826;28;19915;-64
2022/07/14 02:19:20;;;;;;;;;;;16.10;99.90;;;;;;5056720;28;19908;-65
2022/07/14 02:21:46;;;;;;;;;;;16.20;99.90;;;;;;5074496;28;19910;-64
2022/07/14 02:24:12;;;;;;;;;;;16.10;99.90;;;;;;5074382;28;19914;-64
2022/07/14 02:26:38;;;;;;;;;;;16.00;99.90;;;;;;5074421;28;19948;-64
2022/07/14 02:29:05;;;;;;;;;;;16.00;99.90;;;;;;5074354;28;19947;-64
2022/07/14 02:31:31;;;;;;;;;;;16.00;99.90;;;;;;5056635;28;20298;-65
2022/07/14 02:33:56;;;;;;;;;;;15.90;99.90;;;;;;5074250;28;19948;-65
2022/07/14 02:36:23;;;;;;;;;;;15.90;99.90;;;;;;5074223;28;19971;-64
2022/07/14 02:38:49;;;;;;;;;;;15.90;99.90;;;;;;5074429;28;19909;-64
2022/07/14 02:41:14;;;;;;;;;;;15.80;99.90;;;;;;5074121;28;20006;-64
2022/07/14 02:43:40;;;;;;;;;;;15.80;99.90;;;;;;5074316;28;19958;-64
2022/07/14 02:46:05;;;;;;;;;;;15.80;99.90;;;;;;5074316;28;19908;-64
2022/07/14 02:48:31;;;;;;;;;;;15.70;99.90;;;;;;5074248;28;19909;-64
2022/07/14 02:50:58;;;;;;;;;;;15.70;99.90;;;;;;5074269;28;20003;-64
2022/07/14 02:53:24;;;;;;;;;;;15.70;99.90;;;;;;5074115;28;19920;-64
2022/07/14 02:55:49;;;;;;;;;;;15.60;99.90;;;;;;5074139;28;19913;-64
2022/07/14 02:58:15;;;;;;;;;;;15.60;99.90;;;;;;5073882;28;20454;-64
2022/07/14 03:00:41;;;;;;;;;;;15.60;99.90;;;;;;5074066;28;19908;-64
2022/07/14 03:03:06;;;;;;;;;;;15.60;99.90;;;;;;5074092;28;19932;-64
2022/07/14 03:05:32;;;;;;;;;;;15.50;99.90;;;;;;5073786;28;19908;-64
2022/07/14 03:07:57;;;;;;;;;;;15.50;99.90;;;;;;5073510;28;19912;-64
2022/07/14 03:10:23;;;;;;;;;;;15.50;99.90;;;;;;5073961;28;19908;-64
2022/07/14 03:12:48;;;;;;;;;;;15.40;99.90;;;;;;5073871;28;19963;-65
2022/07/14 03:15:14;;;;;;;;;;;15.40;99.90;;;;;;5073677;28;19962;-65
2022/07/14 03:17:39;;;;;;;;;;;15.40;99.90;;;;;;5073945;28;19913;-65
2022/07/14 03:20:06;;;;;;;;;;;15.40;99.90;;;;;;5073936;28;20279;-65
2022/07/14 03:22:32;;;;;;;;;;;15.40;99.90;;;;;;5073850;28;20346;-64
2022/07/14 03:24:57;;;;;;;;;;;15.40;99.90;;;;;;5073572;28;19915;-65
2022/07/14 03:27:23;;;;;;;;;;;15.40;99.90;;;;;;5073832;28;19909;-65
2022/07/14 03:29:48;;;;;;;;;;;15.30;99.90;;;;;;5073533;28;20284;-64
2022/07/14 03:32:14;;;;;;;;;;;15.30;99.90;;;;;;5073426;28;20027;-65
2022/07/14 03:34:39;;;;;;;;;;;15.30;99.90;;;;;;5073758;28;20367;-65
2022/07/14 03:37:05;;;;;;;;;;;15.20;99.90;;;;;;5073760;28;20355;-64
2022/07/14 03:39:30;;;;;;;;;;;15.20;99.90;;;;;;5073703;28;19908;-65
2022/07/14 03:41:56;;;;;;;;;;;15.20;99.90;;;;;;5073661;28;19971;-65
2022/07/14 03:44:21;;;;;;;;;;;15.10;99.90;;;;;;5073644;28;19957;-65
2022/07/14 03:46:47;;;;;;;;;;;15.10;99.90;;;;;;5073642;28;19909;-66
2022/07/14 03:49:12;;;;;;;;;;;15.10;99.90;;;;;;5073330;28;20439;-65
2022/07/14 03:51:41;;;;;;;;;;;15.10;99.90;;;;;;5073203;28;19908;-66
2022/07/14 03:54:07;;;;;;;;;;;15.10;99.90;;;;;;5073520;28;19916;-65
2022/07/14 03:56:32;;;;;;;;;;;15.10;99.90;;;;;;5073244;28;19909;-66
2022/07/14 03:58:58;;;;;;;;;;;15.10;99.90;;;;;;5073217;28;19908;-65
2022/07/14 04:01:23;;;;;;;;;;;15.10;99.90;;;;;;5073248;28;19915;-65
2022/07/14 04:03:49;;;;;;;;;;;15.20;99.90;;;;;;5073451;28;19985;-66
2022/07/14 04:06:14;;;;;;;;;;;15.20;99.90;;;;;;5073429;28;20397;-64
2022/07/14 04:08:40;;;;;;;;;;;15.10;99.90;;;;;;5073393;28;19912;-65
2022/07/14 04:11:06;;;;;;;;;;;15.20;99.90;;;;;;5073381;28;19908;-66
2022/07/14 04:13:32;;;;;;;;;;;15.10;99.90;;;;;;5073286;28;19955;-65
2022/07/14 04:15:58;;;;;;;;;;;15.10;99.90;;;;;;5073074;28;19909;-66
2022/07/14 04:18:23;;;;;;;;;;;15.10;99.90;;;;;;5073208;28;20443;-65
2022/07/14 04:20:50;;;;;;;;;;;15.20;99.90;;;;;;5077089;28;19909;-66
2022/07/14 04:23:16;;;;;;;;;;;15.20;99.90;;;;;;5076720;28;19909;-65
2022/07/14 04:25:41;;;;;;;;;;;15.20;99.90;;;;;;5076950;28;19908;-65
2022/07/14 04:28:07;;;;;;;;;;;15.30;99.90;;;;;;5076678;28;19908;-65
2022/07/14 04:30:32;;;;;;;;;;;15.30;99.90;;;;;;5076897;28;19908;-65
2022/07/14 04:32:58;;;;;;;;;;;15.40;99.90;;;;;;5076322;28;19921;-66
2022/07/14 04:35:23;;;;;;;;;;;15.50;99.90;;;;;;5076591;28;19934;-64
2022/07/14 04:37:49;;;;;;;;;;;15.40;99.90;;;;;;5076727;28;20378;-65
2022/07/14 04:40:14;;;;;;;;;;;15.50;99.90;;;;;;5076708;28;19958;-64
2022/07/14 04:42:40;;;;;;;;;;;15.50;99.90;;;;;;5076395;28;19920;-65
2022/07/14 04:45:05;;;;;;;;;;;15.60;99.90;;;;;;5076635;28;19916;-65
2022/07/14 04:47:31;;;;;;;;;;;15.50;99.90;;;;;;5076283;28;19909;-65
2022/07/14 04:52:47;;;;;;;;;;;15.60;99.90;;;;;;5075930;28;19912;-64
2022/07/14 04:55:12;;;;;;;;;;;15.70;99.90;;;;;;5076392;28;19912;-65
2022/07/14 04:57:38;;;;;;;;;;;15.80;99.90;;;;;;5076262;28;20256;-65
2022/07/14 05:00:04;;;;;;;;;;;15.90;99.90;;;;;;5075909;28;19908;-65
2022/07/14 05:02:29;;;;;;;;;;;16.00;99.90;;;;;;5076006;28;20397;-65
2022/07/14 05:04:55;;;;;;;;;;;15.90;99.90;;;;;;5075952;28;20000;-64
2022/07/14 05:07:20;;;;;;;;;;;15.90;99.90;;;;;;5076021;28;19912;-65
2022/07/14 05:09:46;;;;;;;;;;;15.90;99.90;;;;;;5076221;28;19909;-65
2022/07/14 05:12:13;;;;;;;;;;;15.90;99.90;;;;;;5075845;28;20360;-65
2022/07/14 05:14:39;;;;;;;;;;;16.10;99.90;;;;;;5075843;28;20363;-65
2022/07/14 05:17:04;;;;;;;;;;;16.70;99.90;;;;;;5058234;28;19934;-65
2022/07/14 05:19:29;;;;;;;;;;;17.50;99.90;;;;;;5075754;28;20379;-65
2022/07/14 05:21:55;;;;;;;;;;;18.20;99.90;;;;;;5075977;28;19908;-66
2022/07/14 05:24:20;;;;;;;;;;;18.50;99.90;;;;;;5075907;28;19916;-65
2022/07/14 05:26:46;;;;;;;;;;;18.60;99.90;;;;;;5075624;28;20341;-65
2022/07/14 05:29:12;;;;;;;;;;;19.20;99.90;;;;;;5075816;28;19909;-65
2022/07/14 05:31:37;;;;;;;;;;;19.90;99.90;;;;;;5075390;28;20377;-65
2022/07/14 05:34:02;;;;;;;;;;;20.70;99.90;;;;;;5075754;28;19916;-65
2022/07/14 05:36:28;;;;;;;;;;;21.30;99.90;;;;;;5057480;28;20370;-65
2022/07/14 05:38:54;;;;;;;;;;;21.80;99.90;;;;;;5075635;28;19958;-65
2022/07/14 05:41:20;;;;;;;;;;;21.90;99.90;;;;;;5075592;28;20309;-65
2022/07/14 05:43:46;;;;;;;;;;;21.40;99.90;;;;;;5075619;28;19908;-65
2022/07/14 05:46:12;;;;;;;;;;;20.80;99.90;;;;;;5075538;28;20428;-66
2022/07/14 05:48:37;;;;;;;;;;;21.30;99.90;;;;;;5075389;28;19983;-65
2022/07/14 05:51:04;;;;;;;;;;;22.20;99.90;;;;;;5075370;28;19909;-65
2022/07/14 05:53:29;;;;;;;;;;;22.80;99.90;;;;;;5075233;28;19995;-65
2022/07/14 05:55:55;;;;;;;;;;;23.70;99.90;;;;;;5075352;28;19946;-66
2022/07/14 05:58:21;;;;;;;;;;;23.50;99.90;;;;;;5074909;28;19971;-65
2022/07/14 06:00:47;;;;;;;;;;;24.30;99.90;;;;;;5075230;28;19908;-66
2022/07/14 06:03:13;;;;;;;;;;;24.40;99.90;;;;;;5040255;28;20398;-65
2022/07/14 06:05:39;;;;;;;;;;;23.00;99.90;;;;;;5075115;28;19999;-65
2022/07/14 06:08:04;;;;;;;;;;;21.40;99.90;;;;;;5074089;28;19973;-65
2022/07/14 06:10:30;;;;;;;;;;;20.60;99.90;;;;;;5078200;28;19916;-65
2022/07/14 06:12:55;;;;;;;;;;;20.10;99.90;;;;;;5077834;28;20359;-65
2022/07/14 06:15:21;;;;;;;;;;;19.50;99.90;;;;;;5076217;28;19927;-66
2022/07/14 06:17:46;;;;;;;;;;;19.30;99.90;;;;;;5078430;28;20282;-65
2022/07/14 06:20:12;;;;;;;;;;;19.10;99.90;;;;;;5076793;28;19995;-65
2022/07/14 06:22:37;;;;;;;;;;;18.70;99.90;;;;;;5074863;28;19934;-65
2022/07/14 06:25:03;;;;;;;;;;;18.40;99.90;;;;;;5074180;28;19921;-65
2022/07/14 06:27:29;;;;;;;;;;;18.70;99.90;;;;;;5074287;28;20401;-65
2022/07/14 06:29:54;;;;;;;;;;;18.90;99.90;;;;;;5056056;28;19909;-66
2022/07/14 06:32:20;;;;;;;;;;;19.10;99.90;;;;;;5071751;28;20367;-65
2022/07/14 06:34:46;;;;;;;;;;;19.30;99.90;;;;;;5038933;28;20374;-65
2022/07/14 06:37:12;;;;;;;;;;;19.30;99.90;;;;;;5073586;28;19947;-65
2022/07/14 06:39:37;;;;;;;;;;;19.50;99.90;;;;;;5062336;28;19924;-65
2022/07/14 06:42:03;;;;;;;;;;;19.50;99.90;;;;;;5069189;28;19919;-66
2022/07/14 06:44:29;;;;;;;;;;;19.90;99.90;;;;;;5068823;28;20253;-65
2022/07/14 06:46:54;;;;;;;;;;;20.20;99.90;;;;;;5072766;28;19916;-65
2022/07/14 06:49:21;;;;;;;;;;;20.50;99.90;;;;;;5072537;28;19919;-64
2022/07/14 06:51:46;;;;;;;;;;;20.80;99.90;;;;;;5072698;28;19908;-65
2022/07/14 06:54:12;;;;;;;;;;;20.90;99.90;;;;;;5073150;28;19934;-65
2022/07/14 06:56:37;;;;;;;;;;;21.30;99.90;;;;;;5071577;28;20359;-65
2022/07/14 06:59:02;;;;;;;;;;;22.50;99.90;;;;;;5068495;28;19920;-64
2022/07/14 07:01:28;;;;;;;;;;;23.60;99.90;;;;;;5073782;28;20370;-65
2022/07/14 07:03:53;;;;;;;;;;;25.30;99.90;;;;;;5074074;28;19908;-65
2022/07/14 07:06:50;;;;;;;;;;;25.50;99.90;;;;;;5073839;28;20362;-65
2022/07/14 07:09:04;;;;;;;;;;;26.50;99.90;;;;;;5073491;28;19916;-65
2022/07/14 07:11:30;;;;;;;;;;;25.60;99.90;;;;;;5073911;28;19912;-65
2022/07/14 07:13:55;;;;;;;;;;;24.90;99.90;;;;;;5073857;28;19913;-65
2022/07/14 07:16:21;;;;;;;;;;;24.10;99.90;;;;;;5073729;28;20367;-65
2022/07/14 07:18:46;;;;;;;;;;;23.20;99.90;;;;;;5073441;28;19958;-65
2022/07/14 07:21:14;;;;;;;;;;;22.60;99.90;;;;;;5073789;28;19908;-65
2022/07/14 07:23:44;;;;;;;;;;;23.20;99.90;;;;;;5073727;28;19916;-66
2022/07/14 07:26:10;;;;;;;;;;;22.80;99.90;;;;;;5073701;28;20374;-64
2022/07/14 07:28:35;;;;;;;;;;;22.80;99.90;;;;;;5073684;28;19909;-66
2022/07/14 07:31:01;;;;;;;;;;;23.60;99.90;;;;;;5073451;28;20445;-66
2022/07/14 07:33:26;;;;;;;;;;;23.90;99.90;;;;;;5073013;28;19925;-66
2022/07/14 07:35:52;;;;;;;;;;;23.50;99.90;;;;;;5073457;28;19912;-67
2022/07/14 07:38:17;;;;;;;;;;;23.90;99.90;;;;;;5073747;28;19931;-66
2022/07/14 07:40:44;;;;;;;;;;;24.30;99.90;;;;;;5055412;28;19913;-67
2022/07/14 07:43:09;;;;;;;;;;;25.30;99.90;;;;;;5069396;28;19908;-66
2022/07/14 07:45:35;;;;;;;;;;;27.30;97.50;;;;;;5072692;28;19912;-65
2022/07/14 07:48:03;;;;;;;;;;;26.30;96.90;;;;;;5072216;28;19919;-67
2022/07/14 07:50:29;;;;;;;;;;;24.90;98.20;;;;;;5072818;28;19966;-66
2022/07/14 07:52:55;;;;;;;;;;;24.90;99.40;;;;;;5072757;28;19927;-66
2022/07/14 07:55:20;;;;;;;;;;;26.50;97.00;;;;;;5041704;28;19920;-66
2022/07/14 07:57:46;;;;;;;;;;;28.00;93.30;;;;;;5073522;28;19965;-65
2022/07/14 08:00:11;;;;;;;;;;;28.60;90.90;;;;;;5061547;28;19916;-64
2022/07/14 08:02:45;;;;;;;;;;;28.10;90.50;;;;;;5076619;28;20259;-65
2022/07/14 08:05:11;;;;;;;;;;;28.50;85.70;;;;;;5076883;28;20321;-64
2022/07/14 08:07:37;;;;;;;;;;;28.70;84.30;;;;;;5075979;28;19919;-64
2022/07/14 08:10:02;;;;;;;;;;;29.10;83.80;;;;;;5073505;28;19912;-65
2022/07/14 08:12:28;;;;;;;;;;;29.30;81.20;;;;;;5052415;28;20011;-64
2022/07/14 08:14:54;;;;;;;;;;;29.00;79.10;;;;;;5070895;28;19913;-65
2022/07/14 08:17:20;;;;;;;;;;;28.10;79.30;;;;;;5076683;28;19913;-64
2022/07/14 08:19:46;;;;;;;;;;;28.70;77.60;;;;;;5076766;28;19951;-65
2022/07/14 08:22:12;;;;;;;;;;;28.10;78.20;;;;;;5074854;28;19919;-64
2022/07/14 08:24:39;;;;;;;;;;;28.40;80.10;;;;;;5076607;28;20375;-64
2022/07/14 08:27:04;;;;;;;;;;;26.60;79.90;;;;;;5076707;28;20424;-64
2022/07/14 08:29:30;;;;;;;;;;;26.70;80.80;;;;;;5076313;28;19913;-63
2022/07/14 08:31:55;;;;;;;;;;;26.80;80.90;;;;;;5068550;28;19966;-64
2022/07/14 08:34:21;;;;;;;;;;;26.30;85.50;;;;;;5076554;28;19962;-64
2022/07/14 08:36:46;;;;;;;;;;;26.20;85.80;;;;;;5076497;28;19909;-63
2022/07/14 08:39:12;;;;;;;;;;;27.50;83.90;;;;;;5075234;28;20016;-63
2022/07/14 08:41:38;;;;;;;;;;;28.70;78.20;;;;;;5076633;28;20014;-65
2022/07/14 08:44:04;;;;;;;;;;;29.50;72.50;;;;;;5076370;28;19916;-63
2022/07/14 08:46:30;;;;;;;;;;;29.80;70.40;;;;;;5073506;28;20023;-64
2022/07/14 08:48:56;;;;;;;;;;;29.50;69.50;;;;;;5073578;28;19912;-64
2022/07/14 08:51:22;;;;;;;;;;;30.60;68.80;;;;;;5076118;28;20286;-64
2022/07/14 08:53:47;;;;;;;;;;;30.40;65.10;;;;;;5076353;28;19913;-64
2022/07/14 08:56:13;;;;;;;;;;;30.30;65.90;;;;;;5076102;28;20356;-64
2022/07/14 08:58:40;;;;;;;;;;;28.60;67.00;;;;;;5074672;28;19908;-66
2022/07/14 09:01:05;;;;;;;;;;;28.80;67.20;;;;;;5057092;28;19933;-64
2022/07/14 09:03:31;;;;;;;;;;;30.20;64.10;;;;;;5076249;28;19908;-65
2022/07/14 09:05:57;;;;;;;;;;;29.20;63.30;;;;;;5075774;28;19931;-64
2022/07/14 09:08:22;;;;;;;;;;;28.80;62.90;;;;;;5069587;28;20333;-64
2022/07/14 09:10:48;;;;;;;;;;;28.70;64.00;;;;;;5075827;28;19915;-64
2022/07/14 09:13:17;;;;;;;;;;;27.70;67.90;;;;;;5076021;28;19947;-64
2022/07/14 09:15:44;;;;;;;;;;;28.30;68.00;;;;;;5057797;28;20201;-64
2022/07/14 09:18:17;;;;;;;;;;;29.20;66.70;;;;;;5058090;28;20406;-64
2022/07/14 09:20:43;;;;;;;;;;;29.20;63.00;;;;;;5075857;28;19909;-64
2022/07/14 09:23:09;;;;;;;;;;;29.10;64.50;;;;;;5075846;28;19974;-64
2022/07/14 09:25:34;;;;;;;;;;;29.40;63.30;;;;;;5075833;28;20362;-64
2022/07/14 09:28:00;;;;;;;;;;;28.30;64.80;;;;;;5049954;28;20015;-64
2022/07/14 09:30:26;;;;;;;;;;;29.10;66.60;;;;;;5055705;28;19955;-64
2022/07/14 09:32:56;;;;;;;;;;;30.20;65.50;;;;;;5055230;28;19921;-64
2022/07/14 09:35:23;;;;;;;;;;;30.00;64.80;;;;;;5055631;28;19909;-64
2022/07/14 09:37:51;;;;;;;;;;;29.80;60.10;;;;;;5042612;28;19926;-64
2022/07/14 09:40:21;;;;;;;;;;;29.90;60.70;;;;;;5057107;28;20359;-64
2022/07/14 09:42:48;;;;;;;;;;;30.10;60.80;;;;;;5075105;28;19909;-64
2022/07/14 09:45:14;;;;;;;;;;;28.90;60.20;;;;;;5075404;28;19908;-64
2022/07/14 09:47:59;;;;;;;;;;;28.70;61.10;;;;;;5075340;28;19987;-63
2022/07/14 09:50:33;;;;;;;;;;;29.10;63.30;;;;;;5074896;28;19934;-64
2022/07/14 09:53:08;;;;;;;;;;;28.00;64.90;;;;;;5075173;28;20011;-64
2022/07/14 09:55:35;;;;;;;;;;;28.20;64.50;;;;;;5074996;28;19942;-64
2022/07/14 09:58:02;;;;;;;;;;;28.90;63.50;;;;;;5075031;28;19919;-64
2022/07/14 10:00:28;;;;;;;;;;;28.10;64.70;;;;;;5074227;28;19915;-64
2022/07/14 10:02:53;;;;;;;;;;;28.80;64.40;;;;;;5056132;28;19908;-64
2022/07/14 10:05:19;;;;;;;;;;;28.60;62.70;;;;;;5068811;28;19948;-64
2022/07/14 10:07:47;;;;;;;;;;;28.10;62.50;;;;;;5068257;28;19948;-63
2022/07/14 10:10:15;;;;;;;;;;;28.70;63.70;;;;;;5056662;28;19909;-64
2022/07/14 10:12:41;;;;;;;;;;;28.50;62.00;;;;;;5074739;28;19913;-63
2022/07/14 10:15:07;;;;;;;;;;;28.10;62.30;;;;;;5074767;28;19966;-66
2022/07/14 10:17:35;;;;;;;;;;;27.80;64.10;;;;;;5071075;28;19920;-64
2022/07/14 10:20:00;;;;;;;;;;;27.80;67.20;;;;;;5062791;28;19955;-64
2022/07/14 10:22:26;;;;;;;;;;;28.90;61.20;;;;;;5054436;28;20291;-64
2022/07/14 10:24:52;;;;;;;;;;;29.00;58.90;;;;;;5054531;28;19908;-64
2022/07/14 10:27:18;;;;;;;;;;;28.80;59.20;;;;;;5054545;28;20363;-64
2022/07/14 10:29:47;;;;;;;;;;;28.40;59.60;;;;;;5054514;28;19935;-65
2022/07/14 10:32:20;;;;;;;;;;;28.60;59.50;;;;;;5053542;28;20366;-64
2022/07/14 10:34:52;;;;;;;;;;;29.00;59.10;;;;;;5053956;28;19908;-64
2022/07/14 10:37:24;;;;;;;;;;;28.30;58.60;;;;;;5054129;28;19940;-64
2022/07/14 10:39:54;;;;;;;;;;;28.30;58.80;;;;;;5054382;28;19913;-64
2022/07/14 10:42:25;;;;;;;;;;;28.30;57.70;;;;;;5054285;28;19908;-64
2022/07/14 10:44:52;;;;;;;;;;;28.70;57.60;;;;;;5019764;28;20322;-65
2022/07/14 10:47:17;;;;;;;;;;;29.50;58.40;;;;;;5036032;28;19909;-64
2022/07/14 10:50:03;;;;;;;;;;;28.90;56.10;;;;;;5054229;28;20270;-64
2022/07/14 10:52:32;;;;;;;;;;;28.30;58.40;;;;;;5053290;28;19917;-64
2022/07/14 10:55:17;;;;;;;;;;;27.90;59.10;;;;;;5054091;28;19913;-65
2022/07/14 10:58:04;;;;;;;;;;;28.10;61.10;;;;;;5053645;28;20298;-65
2022/07/14 11:03:25;;;;;;;;;;;27.80;59.20;;;;;;5071071;28;19913;-65
2022/07/14 11:06:10;;;;;;;;;;;27.30;59.50;;;;;;5071076;28;19963;-65
2022/07/14 11:08:37;;;;;;;;;;;26.90;59.50;;;;;;5066151;28;19916;-64
2022/07/14 11:11:08;;;;;;;;;;;26.90;60.80;;;;;;5065784;28;19924;-66
2022/07/14 11:13:33;;;;;;;;;;;26.90;61.30;;;;;;5067933;28;20290;-66
2022/07/14 11:16:02;;;;;;;;;;;26.40;60.70;;;;;;5068472;28;19908;-64
2022/07/14 11:18:34;;;;;;;;;;;26.70;62.90;;;;;;5068911;28;19995;-65
2022/07/14 11:26:42;;;;;;;;;;;26.50;61.60;;;;;;5006939;28;19913;-66
2022/07/14 11:29:09;;;;;;;;;;;26.60;62.90;;;;;;5006747;28;19918;-66
2022/07/14 11:31:51;;;;;;;;;;;26.30;62.70;;;;;;5007139;28;19909;-65
2022/07/14 11:37:10;;;;;;;;;;;26.80;63.40;;;;;;5005821;28;19917;-65
2022/07/14 11:39:37;;;;;;;;;;;27.00;64.90;;;;;;5007449;28;20296;-65
2022/07/14 11:42:07;;;;;;;;;;;26.70;63.50;;;;;;5007444;28;20380;-65
2022/07/14 11:47:29;;;;;;;;;;;25.80;63.10;;;;;;5071058;28;19913;-65
2022/07/14 11:49:55;;;;;;;;;;;25.80;64.60;;;;;;5071090;28;20014;-66
2022/07/14 11:52:24;;;;;;;;;;;25.10;66.00;;;;;;5070689;28;19909;-66
2022/07/14 11:54:58;;;;;;;;;;;25.40;66.20;;;;;;5068997;28;19908;-67
2022/07/14 11:57:23;;;;;;;;;;;25.90;64.50;;;;;;5067152;28;19966;-66
2022/07/14 11:59:49;;;;;;;;;;;26.00;65.70;;;;;;5069678;28;19912;-65
2022/07/14 12:02:18;;;;;;;;;;;26.20;64.70;;;;;;5070576;28;19954;-65
2022/07/14 12:04:52;;;;;;;;;;;26.50;64.40;;;;;;5070700;28;19909;-65
2022/07/14 12:07:19;;;;;;;;;;;26.60;64.30;;;;;;5070406;28;20333;-65
2022/07/14 12:09:45;;;;;;;;;;;27.00;63.40;;;;;;5070616;28;19908;-65
2022/07/14 12:12:10;;;;;;;;;;;27.10;62.10;;;;;;5070461;28;19912;-66
2022/07/14 12:14:42;;;;;;;;;;;27.10;62.90;;;;;;5070567;28;20007;-66
2022/07/14 12:17:08;;;;;;;;;;;26.90;63.90;;;;;;5069008;28;19931;-66
2022/07/14 12:19:33;;;;;;;;;;;26.90;62.90;;;;;;5070248;28;19909;-66
2022/07/14 12:21:59;;;;;;;;;;;26.70;64.00;;;;;;5069791;28;19924;-66
2022/07/14 12:24:25;;;;;;;;;;;27.10;64.60;;;;;;5070285;28;20444;-65
2022/07/14 12:26:51;;;;;;;;;;;27.00;62.50;;;;;;5069222;28;19968;-66
2022/07/14 12:29:16;;;;;;;;;;;26.40;64.40;;;;;;5064595;28;19962;-65
2022/07/14 12:31:42;;;;;;;;;;;26.60;65.00;;;;;;5068569;28;19917;-65
2022/07/14 12:34:08;;;;;;;;;;;26.90;61.90;;;;;;5069283;28;19909;-65
2022/07/14 12:36:34;;;;;;;;;;;26.50;62.00;;;;;;5068150;28;19912;-65
2022/07/14 12:39:02;;;;;;;;;;;26.60;63.00;;;;;;5064410;28;20283;-66
2022/07/14 12:41:28;;;;;;;;;;;26.40;61.90;;;;;;5059150;28;19967;-65
2022/07/14 12:43:54;;;;;;;;;;;26.40;62.00;;;;;;5067386;28;19948;-66
2022/07/14 12:46:22;;;;;;;;;;;26.50;61.70;;;;;;5081536;28;19928;-65
2022/07/14 12:54:12;;;;;;;;;;;26.30;63.10;;;;;;5110151;27;19916;-66
2022/07/14 12:56:45;;;;;;;;;;;26.50;62.70;;;;;;5111167;28;19920;-67
2022/07/14 12:59:12;;;;;;;;;;;26.40;64.00;;;;;;5113333;28;19915;-65
2022/07/14 13:01:54;;;;;;;;;;;26.20;62.10;;;;;;5121268;28;19934;-66
2022/07/14 13:04:41;;;;;;;;;;;26.60;61.40;;;;;;5112246;28;19951;-65
2022/07/14 13:07:15;;;;;;;;;;;27.00;60.60;;;;;;5110007;28;19915;-66
2022/07/14 13:10:01;;;;;;;;;;;26.90;58.80;;;;;;5120102;28;19908;-65
2022/07/14 13:12:28;;;;;;;;;;;26.60;58.00;;;;;;5117327;28;19920;-65
2022/07/14 13:14:54;;;;;;;;;;;27.00;59.40;;;;;;5110556;28;19950;-66
2022/07/14 13:17:19;;;;;;;;;;;26.60;59.50;;;;;;5120139;28;19912;-66
2022/07/14 13:19:45;;;;;;;;;;;26.80;59.30;;;;;;5117047;28;19948;-66
2022/07/14 13:22:10;;;;;;;;;;;26.60;58.70;;;;;;5111912;28;19912;-66
2022/07/14 13:24:38;;;;;;;;;;;26.60;59.20;;;;;;5129518;28;20464;-66
2022/07/14 13:27:09;;;;;;;;;;;26.20;59.80;;;;;;5111455;28;19920;-65
2022/07/14 13:29:37;;;;;;;;;;;26.00;59.30;;;;;;5117075;28;19918;-65
2022/07/14 13:32:03;;;;;;;;;;;25.80;61.20;;;;;;5107936;28;19920;-65
2022/07/14 13:34:29;;;;;;;;;;;25.80;59.40;;;;;;5108840;28;20022;-65
2022/07/14 13:36:55;;;;;;;;;;;26.50;60.30;;;;;;5109550;28;19919;-66
2022/07/14 13:39:21;;;;;;;;;;;26.40;59.30;;;;;;5109655;28;20007;-65
2022/07/14 13:41:47;;;;;;;;;;;26.20;59.00;;;;;;5111722;28;20023;-66
2022/07/14 13:44:12;;;;;;;;;;;26.20;59.50;;;;;;5114865;28;20086;-66
2022/07/14 13:46:38;;;;;;;;;;;26.30;60.00;;;;;;5117833;28;19920;-66
2022/07/14 13:49:04;;;;;;;;;;;26.20;58.60;;;;;;5119995;28;20400;-66
2022/07/14 13:54:15;;;;;;;;;;;26.40;59.00;;;;;;5112761;28;19920;-66
2022/07/14 13:56:41;;;;;;;;;;;26.70;58.80;;;;;;5109420;28;19908;-66
2022/07/14 13:59:08;;;;;;;;;;;26.50;58.90;;;;;;5109368;28;19951;-67
2022/07/14 14:01:34;;;;;;;;;;;26.50;60.00;;;;;;5142143;27;20409;-66
2022/07/14 14:04:00;;;;;;;;;;;25.80;59.60;;;;;;5094568;28;19963;-66
2022/07/14 14:06:26;;;;;;;;;;;25.60;60.40;;;;;;5096137;28;20312;-66
2022/07/14 14:08:51;;;;;;;;;;;25.20;61.00;;;;;;5094651;28;19915;-66
2022/07/14 14:11:17;;;;;;;;;;;25.20;62.20;;;;;;5099042;28;19924;-66
2022/07/14 14:13:42;;;;;;;;;;;25.60;61.50;;;;;;5100538;28;20384;-66
2022/07/14 14:16:08;;;;;;;;;;;25.60;60.10;;;;;;5096438;28;19916;-67
2022/07/14 14:18:34;;;;;;;;;;;25.90;60.70;;;;;;5089092;28;19909;-66
2022/07/14 14:21:00;;;;;;;;;;;25.90;59.10;;;;;;5074993;28;19916;-66
2022/07/14 14:23:27;;;;;;;;;;;25.40;58.50;;;;;;5081773;28;19915;-66
2022/07/14 14:25:53;;;;;;;;;;;25.30;59.50;;;;;;5097081;28;20390;-68
2022/07/14 14:28:19;;;;;;;;;;;25.70;59.80;;;;;;5095448;28;20132;-67
2022/07/14 14:30:45;;;;;;;;;;;25.80;58.40;;;;;;5095367;28;19919;-66
2022/07/14 14:33:10;;;;;;;;;;;25.70;58.40;;;;;;5097209;28;19919;-66
2022/07/14 14:35:36;;;;;;;;;;;25.60;58.40;;;;;;5095474;28;19919;-66
2022/07/14 14:38:03;;;;;;;;;;;25.60;58.40;;;;;;5099572;28;19957;-67
2022/07/14 14:40:29;;;;;;;;;;;25.50;57.90;;;;;;5100505;28;19916;-67